Time,TemperatureF,DewpointF,PressureIn,WindDirection,WindDirectionDegrees,WindSpeedMPH,WindSpeedGustMPH,Humidity,HourlyPrecipIn,Conditions,Clouds,dailyrainin,SolarRadiationWatts/m^2,SoftwareType,DateUTC
2013-05-13 00:02:00,59.0,54.0,-100.00,NNE,16,5.0,7.0,84,0.00,,,0.00,0.000000,,2013-05-13 05:02:00,
2013-05-13 00:32:00,57.0,53.0,-100.00,North,10,5.0,7.0,88,0.00,,,0.00,0.000000,,2013-05-13 05:32:00,
2013-05-13 00:42:00,57.0,53.0,-100.00,North,10,5.0,7.0,88,0.00,,,0.00,0.000000,,2013-05-13 05:42:00,
2013-05-13 00:52:00,57.0,53.0,-100.00,North,10,5.0,7.0,88,0.00,,,0.00,0.000000,,2013-05-13 05:52:00,
2013-05-13 01:01:00,57.0,53.0,-100.00,North,10,5.0,7.0,88,0.00,,,0.00,0.000000,,2013-05-13 06:01:00,
2013-05-13 01:32:00,56.0,53.0,-100.00,NNE,19,5.0,7.0,90,0.00,,,0.00,0.000000,,2013-05-13 06:32:00,
2013-05-13 01:42:00,56.0,53.0,-100.00,NNE,19,5.0,7.0,90,0.00,,,0.00,0.000000,,2013-05-13 06:42:00,
2013-05-13 01:52:00,56.0,53.0,-100.00,NNE,19,5.0,7.0,90,0.00,,,0.00,0.000000,,2013-05-13 06:52:00,
2013-05-13 02:01:00,56.0,53.0,-100.00,NNE,19,5.0,7.0,90,0.00,,,0.00,0.000000,,2013-05-13 07:01:00,
2013-05-13 02:32:00,54.0,52.0,-100.00,ENE,58,3.0,7.0,92,0.00,,,0.00,0.000000,,2013-05-13 07:32:00,
2013-05-13 02:42:00,54.0,52.0,-100.00,ENE,58,3.0,7.0,92,0.00,,,0.00,0.000000,,2013-05-13 07:42:00,
2013-05-13 02:52:00,54.0,52.0,-100.00,ENE,58,3.0,7.0,92,0.00,,,0.00,0.000000,,2013-05-13 07:52:00,
2013-05-13 03:02:00,54.0,52.0,-100.00,ENE,58,3.0,7.0,92,0.00,,,0.00,0.000000,,2013-05-13 08:02:00,
2013-05-13 03:32:00,52.0,51.0,-100.00,NNE,16,5.0,7.0,95,0.00,,,0.00,0.000000,,2013-05-13 08:32:00,
2013-05-13 03:42:00,52.0,51.0,-100.00,NNE,16,5.0,7.0,95,0.00,,,0.00,0.000000,,2013-05-13 08:42:00,
2013-05-13 03:52:00,52.0,51.0,-100.00,NNE,16,5.0,7.0,95,0.00,,,0.00,0.000000,,2013-05-13 08:52:00,
2013-05-13 04:01:00,52.0,51.0,-100.00,NNE,16,5.0,7.0,95,0.00,,,0.00,0.000000,,2013-05-13 09:01:00,
2013-05-13 04:33:00,51.0,50.0,-100.00,NE,46,4.0,6.0,95,0.00,,,0.00,0.000000,,2013-05-13 09:33:00,
2013-05-13 04:42:00,51.0,50.0,-100.00,NE,46,4.0,6.0,95,0.00,,,0.00,0.000000,,2013-05-13 09:42:00,
2013-05-13 04:52:00,51.0,50.0,-100.00,NE,46,4.0,6.0,95,0.00,,,0.00,0.000000,,2013-05-13 09:52:00,
2013-05-13 05:03:00,51.0,50.0,-100.00,NE,46,4.0,6.0,95,0.00,,,0.00,0.000000,,2013-05-13 10:03:00,
2013-05-13 05:33:00,51.0,50.0,-100.00,NNE,26,4.0,6.0,96,0.00,,,0.00,0.000000,,2013-05-13 10:33:00,
2013-05-13 05:43:00,51.0,50.0,-100.00,NNE,26,4.0,6.0,96,0.00,,,0.00,0.000000,,2013-05-13 10:43:00,
2013-05-13 05:52:00,51.0,50.0,-100.00,NNE,26,4.0,6.0,96,0.00,,,0.00,0.000000,,2013-05-13 10:52:00,
2013-05-13 06:02:00,51.0,50.0,-100.00,NNE,26,4.0,6.0,96,0.00,,,0.00,0.000000,,2013-05-13 11:02:00,
2013-05-13 06:32:00,49.0,48.0,-100.00,NNE,13,3.0,5.0,96,0.00,,,0.00,0.000000,,2013-05-13 11:32:00,
2013-05-13 06:42:00,49.0,48.0,-100.00,NNE,13,3.0,5.0,96,0.00,,,0.00,0.000000,,2013-05-13 11:42:00,
2013-05-13 06:52:00,49.0,48.0,-100.00,NNE,13,3.0,5.0,96,0.00,,,0.00,0.000000,,2013-05-13 11:52:00,
2013-05-13 07:01:00,49.0,48.0,-100.00,NNE,13,3.0,5.0,96,0.00,,,0.00,0.000000,,2013-05-13 12:01:00,
2013-05-13 07:32:00,49.0,48.0,-100.00,ENE,66,3.0,5.0,96,0.00,,,-99.99,8.000000,,2013-05-13 12:32:00,
2013-05-13 07:42:00,49.0,48.0,-100.00,ENE,66,3.0,5.0,96,0.00,,,-99.99,8.000000,,2013-05-13 12:42:00,
2013-05-13 07:52:00,49.0,48.0,-100.00,ENE,66,3.0,5.0,96,0.00,,,-99.99,8.000000,,2013-05-13 12:52:00,
2013-05-13 08:01:00,49.0,48.0,-100.00,ENE,66,3.0,5.0,96,0.00,,,-99.99,8.000000,,2013-05-13 13:01:00,
2013-05-13 08:32:00,53.0,52.0,-100.00,ENE,75,4.0,7.0,97,0.00,,,0.00,29.000000,,2013-05-13 13:32:00,
2013-05-13 08:42:00,53.0,52.0,-100.00,ENE,75,4.0,7.0,97,0.00,,,0.00,29.000000,,2013-05-13 13:42:00,
2013-05-13 08:52:00,53.0,52.0,-100.00,ENE,75,4.0,7.0,97,0.00,,,0.00,29.000000,,2013-05-13 13:52:00,
2013-05-13 09:02:00,53.0,52.0,-100.00,ENE,75,4.0,7.0,97,0.00,,,0.00,29.000000,,2013-05-13 14:02:00,
2013-05-13 09:32:00,61.0,58.0,-100.00,ESE,114,5.0,11.0,89,0.00,,,0.00,44.000000,,2013-05-13 14:32:00,
2013-05-13 09:42:00,61.0,58.0,-100.00,ESE,114,5.0,11.0,89,0.00,,,0.00,44.000000,,2013-05-13 14:42:00,
2013-05-13 09:52:00,61.0,58.0,-100.00,ESE,114,5.0,11.0,89,0.00,,,0.00,44.000000,,2013-05-13 14:52:00,
2013-05-13 10:01:00,61.0,58.0,-100.00,ESE,114,5.0,11.0,89,0.00,,,0.00,44.000000,,2013-05-13 15:01:00,
2013-05-13 10:32:00,69.0,53.0,-100.00,ESE,117,5.0,10.0,56,0.00,,,0.00,437.000000,,2013-05-13 15:32:00,
2013-05-13 10:42:00,69.0,53.0,-100.00,ESE,117,5.0,10.0,56,0.00,,,0.00,437.000000,,2013-05-13 15:42:00,
2013-05-13 10:53:00,69.0,53.0,-100.00,ESE,117,5.0,10.0,56,0.00,,,0.00,437.000000,,2013-05-13 15:53:00,
2013-05-13 11:03:00,69.0,53.0,-100.00,ESE,117,5.0,10.0,56,0.00,,,0.00,437.000000,,2013-05-13 16:03:00,
2013-05-13 11:34:00,74.0,48.0,-100.00,ESE,119,5.0,12.0,40,0.00,,,0.00,807.000000,,2013-05-13 16:34:00,
2013-05-13 11:43:00,74.0,48.0,-100.00,ESE,119,5.0,12.0,40,0.00,,,0.00,807.000000,,2013-05-13 16:43:00,
2013-05-13 11:53:00,74.0,48.0,-100.00,ESE,119,5.0,12.0,40,0.00,,,0.00,807.000000,,2013-05-13 16:53:00,
2013-05-13 12:02:00,74.0,48.0,-100.00,ESE,119,5.0,12.0,40,0.00,,,0.00,807.000000,,2013-05-13 17:02:00,
2013-05-13 12:32:00,77.0,48.0,-100.00,ESE,112,5.0,15.0,36,0.00,,,0.00,938.000000,,2013-05-13 17:32:00,
2013-05-13 12:42:00,77.0,48.0,-100.00,ESE,112,5.0,15.0,36,0.00,,,0.00,938.000000,,2013-05-13 17:42:00,
2013-05-13 12:54:00,77.0,48.0,-100.00,ESE,112,5.0,15.0,36,0.00,,,0.00,938.000000,,2013-05-13 17:54:00,
2013-05-13 13:03:00,77.0,48.0,-100.00,ESE,112,5.0,15.0,36,0.00,,,0.00,938.000000,,2013-05-13 18:03:00,
2013-05-13 14:33:00,81.0,47.0,-100.00,SSE,156,5.0,11.0,31,-99.99,,,0.00,1015.000000,,2013-05-13 19:33:00,
2013-05-13 14:44:00,81.0,47.0,-100.00,SSE,156,5.0,11.0,31,-99.99,,,0.00,1015.000000,,2013-05-13 19:44:00,
2013-05-13 14:53:00,81.0,47.0,-100.00,SSE,156,5.0,11.0,31,-99.99,,,0.00,1015.000000,,2013-05-13 19:53:00,
2013-05-13 15:01:00,81.0,47.0,-100.00,SSE,156,5.0,11.0,31,-99.99,,,0.00,1015.000000,,2013-05-13 20:01:00,
2013-05-13 17:32:00,83.0,47.0,-100.00,SSE,162,5.0,11.0,28,-99.99,,,0.00,661.000000,,2013-05-13 22:32:00,
2013-05-13 17:43:00,83.0,47.0,-100.00,SSE,162,5.0,11.0,28,-99.99,,,0.00,661.000000,,2013-05-13 22:43:00,
2013-05-13 17:52:00,83.0,47.0,-100.00,SSE,162,5.0,11.0,28,-99.99,,,0.00,661.000000,,2013-05-13 22:52:00,
2013-05-13 18:02:00,83.0,47.0,-100.00,SSE,162,5.0,11.0,28,-99.99,,,0.00,661.000000,,2013-05-13 23:02:00,
2013-05-13 18:34:00,82.0,47.0,-100.00,South,185,5.0,10.0,30,0.00,,,0.00,452.000000,,2013-05-13 23:34:00,
2013-05-13 18:42:00,82.0,47.0,-100.00,South,185,5.0,10.0,30,0.00,,,0.00,452.000000,,2013-05-13 23:42:00,
2013-05-13 18:54:00,82.0,47.0,-100.00,South,185,5.0,10.0,30,0.00,,,0.00,452.000000,,2013-05-13 23:54:00,
2013-05-13 19:02:00,82.0,47.0,-100.00,South,185,5.0,10.0,30,0.00,,,0.00,452.000000,,2013-05-14 00:02:00,
2013-05-13 20:32:00,69.0,54.0,-100.00,South,176,4.0,7.0,58,-99.99,,,0.00,19.000000,,2013-05-14 01:32:00,
2013-05-13 20:43:00,69.0,54.0,-100.00,South,176,4.0,7.0,58,-99.99,,,0.00,19.000000,,2013-05-14 01:43:00,
2013-05-13 20:53:00,69.0,54.0,-100.00,South,176,4.0,7.0,58,-99.99,,,0.00,19.000000,,2013-05-14 01:53:00,
2013-05-13 21:02:00,69.0,54.0,-100.00,South,176,4.0,7.0,58,-99.99,,,0.00,19.000000,,2013-05-14 02:02:00,
2013-05-13 21:32:00,67.0,50.0,-100.00,South,178,5.0,9.0,55,0.00,,,0.00,0.000000,,2013-05-14 02:32:00,
2013-05-13 21:42:00,67.0,50.0,-100.00,South,178,5.0,9.0,55,0.00,,,0.00,0.000000,,2013-05-14 02:42:00,
2013-05-13 21:52:00,67.0,50.0,-100.00,South,178,5.0,9.0,55,0.00,,,0.00,0.000000,,2013-05-14 02:52:00,
2013-05-13 22:01:00,67.0,50.0,-100.00,South,178,5.0,9.0,55,0.00,,,0.00,0.000000,,2013-05-14 03:01:00,
2013-05-13 22:33:00,65.0,52.0,-100.00,SSW,197,5.0,9.0,62,0.00,,,0.00,0.000000,,2013-05-14 03:33:00,
2013-05-13 22:43:00,65.0,52.0,-100.00,SSW,197,5.0,9.0,62,0.00,,,0.00,0.000000,,2013-05-14 03:43:00,
2013-05-13 22:53:00,65.0,52.0,-100.00,SSW,197,5.0,9.0,62,0.00,,,0.00,0.000000,,2013-05-14 03:53:00,
2013-05-13 23:02:00,65.0,52.0,-100.00,SSW,197,5.0,9.0,62,0.00,,,0.00,0.000000,,2013-05-14 04:02:00,
2013-05-13 23:32:00,62.0,54.0,-100.00,SSW,202,4.0,10.0,75,0.00,,,0.00,0.000000,,2013-05-14 04:32:00,
2013-05-13 23:43:00,62.0,54.0,-100.00,SSW,202,4.0,10.0,75,0.00,,,0.00,0.000000,,2013-05-14 04:43:00,
2013-05-13 23:53:00,62.0,54.0,-100.00,SSW,202,4.0,10.0,75,0.00,,,0.00,0.000000,,2013-05-14 04:53:00,